createdAt,value
2022-12-28T00:03:29.062Z,1020.6977876624385
2022-12-28T00:08:25.296Z,1020.6671617159828
2022-12-28T00:13:21.556Z,1020.6910641054269
2022-12-28T00:18:17.821Z,1020.6052643023089
2022-12-28T00:23:14.085Z,1020.6781160675522
2022-12-28T00:28:10.312Z,1020.6332925404697
2022-12-28T00:33:06.606Z,1020.6919018034502
2022-12-28T00:38:02.877Z,1020.7595072292243
2022-12-28T00:42:59.086Z,1020.7877902705425
2022-12-28T00:47:55.343Z,1020.7227392733408
2022-12-28T00:52:51.630Z,1020.6625864591266
2022-12-28T00:57:47.915Z,1020.7133830036488
2022-12-28T01:02:44.204Z,1020.7812566229102
2022-12-28T01:07:40.404Z,1020.7013714376902
2022-12-28T01:12:38.492Z,1020.6181664449662
2022-12-28T01:17:34.919Z,1020.7328660393091
2022-12-28T01:22:31.175Z,1020.697255742497
2022-12-28T01:27:27.456Z,1020.7091553038302
2022-12-28T01:32:23.741Z,1020.6129196944414
2022-12-28T01:37:19.980Z,1020.6936644927508
2022-12-28T01:42:17.194Z,1020.6125286075226
2022-12-28T01:47:17.477Z,1020.6200494158343
2022-12-28T01:52:20.721Z,1020.6998863241329
2022-12-28T01:57:18.960Z,1020.5513314475727
2022-12-28T02:02:15.374Z,1020.5839673986676
2022-12-28T02:07:12.505Z,1020.6166647035077
2022-12-28T02:12:11.775Z,1020.5440702222857
2022-12-28T02:17:09.123Z,1020.5480735535884
2022-12-28T02:22:19.212Z,1020.654493691188
2022-12-28T02:27:24.452Z,1020.6223631247082
2022-12-28T02:32:27.691Z,1020.5195367034892
2022-12-28T02:37:26.991Z,1020.4306604340918
2022-12-28T02:42:24.221Z,1020.4335086007675
2022-12-28T02:47:20.487Z,1020.3713851493293
2022-12-28T02:57:39.934Z,1020.3923107527255
2022-12-28T03:02:54.276Z,1020.3431504392388
2022-12-28T03:08:00.335Z,1020.3764186675756
2022-12-28T03:13:02.647Z,1020.4550512051917
2022-12-28T03:18:02.851Z,1020.4416561143615
2022-12-28T03:23:03.089Z,1020.4284979377406
2022-12-28T03:28:01.355Z,1020.4545482976213
2022-12-28T03:32:57.653Z,1020.4344085663117
2022-12-28T03:37:59.864Z,1020.4524418984653
2022-12-28T03:43:02.120Z,1020.4633746747918
2022-12-28T03:48:01.384Z,1020.4679191195974
2022-12-28T03:52:57.644Z,1020.4868521802973
2022-12-28T03:57:53.903Z,1020.4502983828123
2022-12-28T04:02:50.273Z,1020.3375232215402
2022-12-28T04:07:46.403Z,1020.3985080535389
2022-12-28T04:12:42.676Z,1020.2557822819887
2022-12-28T04:17:38.966Z,1020.2828137940311
2022-12-28T04:22:35.157Z,1020.2430176266561
2022-12-28T04:27:31.446Z,1020.2484359623487
2022-12-28T04:32:28.679Z,1020.3045051253622
2022-12-28T04:37:25.954Z,1020.3482630090552
2022-12-28T04:42:22.235Z,1020.3120714879097
2022-12-28T04:47:18.481Z,1020.2558756457407
2022-12-28T04:52:14.734Z,1020.416283290805
2022-12-28T04:57:10.996Z,1020.3419927773043
2022-12-28T05:02:07.348Z,1020.3827629579766
2022-12-28T05:07:03.534Z,1020.2939111894226
2022-12-28T05:11:59.787Z,1020.2251263393402
2022-12-28T05:16:57.014Z,1020.1942917945114
2022-12-28T05:21:54.309Z,1020.2631549005648
2022-12-28T05:26:50.533Z,1020.1816163783878
2022-12-28T05:31:47.832Z,1020.179775970195
2022-12-28T05:36:45.101Z,1020.2595518510955
2022-12-28T05:41:43.323Z,1020.2051061798239
2022-12-28T05:46:45.666Z,1020.1435961883603
2022-12-28T05:51:42.823Z,1020.1497625185216
2022-12-28T05:56:40.086Z,1020.2731774005488
2022-12-28T06:01:38.550Z,1020.2096299840383
2022-12-28T06:06:35.613Z,1020.2975908000316
2022-12-28T06:11:32.841Z,1020.3925799758952
2022-12-28T06:16:30.164Z,1020.379937991283
2022-12-28T06:21:27.369Z,1020.4152741043795
2022-12-28T06:26:23.593Z,1020.3917996051683
2022-12-28T06:31:20.967Z,1020.3428917872072
2022-12-28T06:36:20.522Z,1020.370072925693
2022-12-28T06:41:18.405Z,1020.2550086262679
2022-12-28T06:46:15.643Z,1020.1562676154789
2022-12-28T06:51:12.902Z,1020.226938649045
2022-12-28T06:56:10.157Z,1020.2984404452848
2022-12-28T07:01:07.594Z,1020.3055100290181
2022-12-28T07:06:04.683Z,1020.1526085969203
2022-12-28T07:11:02.912Z,1020.1816352001516
2022-12-28T07:16:01.185Z,1020.333672295128
2022-12-28T07:20:59.436Z,1020.400111245703
2022-12-28T07:25:55.720Z,1020.3475371967064
2022-12-28T07:30:52.961Z,1020.3503701545792
2022-12-28T07:35:49.202Z,1020.4195373873526
2022-12-28T07:40:45.492Z,1020.5902378688318
2022-12-28T07:45:42.299Z,1020.4563223412842
2022-12-28T07:50:38.983Z,1020.3980842544977
2022-12-28T07:55:35.287Z,1020.4233318255043
2022-12-28T08:00:32.502Z,1020.3087300400739
2022-12-28T08:05:28.732Z,1020.4474490314985
2022-12-28T08:10:25.161Z,1020.5058593377155
2022-12-28T08:15:21.323Z,1020.5263690403543
2022-12-28T08:20:17.518Z,1020.6321194161068
2022-12-28T08:25:13.791Z,1020.6147092205247
2022-12-28T08:30:11.038Z,1020.6756251960869
2022-12-28T08:35:07.329Z,1020.6885297729648
2022-12-28T08:49:29.227Z,1020.8591880778142
2022-12-28T08:54:25.463Z,1020.7515637348724
2022-12-28T08:59:21.689Z,1020.5693336545572
2022-12-28T09:04:20.966Z,1020.4924085741224
2022-12-28T09:09:20.655Z,1020.3842063759583
2022-12-28T09:14:22.117Z,1020.4821765603466
2022-12-28T09:19:18.705Z,1020.3973639395906
2022-12-28T09:24:14.946Z,1020.1349540772271
2022-12-28T09:29:12.359Z,1020.1510370483129
2022-12-28T09:34:37.310Z,1020.0016677822329
2022-12-28T09:39:11.788Z,1020.0735099987082
2022-12-28T09:44:24.088Z,1019.9584675138424
2022-12-28T09:49:27.179Z,1019.8953706604982
2022-12-28T09:54:24.446Z,1019.902055654075
2022-12-28T09:59:22.691Z,1019.858625140063
2022-12-28T10:04:18.921Z,1019.8893466158456
2022-12-28T10:09:19.183Z,1019.823752282697
2022-12-28T10:14:19.996Z,1019.7990777512787
2022-12-28T10:19:16.697Z,1019.7041754917045
2022-12-28T10:24:31.447Z,1019.7232985321368
2022-12-28T10:29:23.874Z,1019.6069602681777
2022-12-28T10:34:22.388Z,1019.5874156911752
2022-12-28T10:39:23.679Z,1019.5493912474806
2022-12-28T10:44:39.844Z,1019.5026852023484
2022-12-28T10:49:28.147Z,1019.4459638001447
2022-12-28T10:54:28.279Z,1019.5333394549468
2022-12-28T10:59:32.687Z,1019.4462865351038
2022-12-28T11:04:42.455Z,1019.4364380431781
2022-12-28T11:09:47.132Z,1019.2026335423635
2022-12-28T11:14:48.660Z,1019.1249093187804
2022-12-28T11:19:46.588Z,1018.9714514207698
2022-12-28T11:24:43.880Z,1018.8531842514963
2022-12-28T11:29:45.147Z,1018.7422379142081
2022-12-28T11:34:51.165Z,1018.5221344082893
2022-12-28T11:39:57.628Z,1018.397393017738
2022-12-28T11:44:55.406Z,1018.3106339882355
2022-12-28T11:50:03.109Z,1018.3779167798415
2022-12-28T11:55:15.316Z,1018.3985574908643
2022-12-28T12:00:26.672Z,1018.3389269699271
2022-12-28T12:05:34.713Z,1018.2154340019184
2022-12-28T12:10:41.007Z,1018.2127530288843
2022-12-28T12:15:44.219Z,1018.2653606399626
2022-12-28T12:20:51.311Z,1018.0802085191284
2022-12-28T12:25:53.728Z,1018.1210125175353
2022-12-28T12:30:51.004Z,1018.1569129754312
2022-12-28T12:35:54.176Z,1018.1630708062079
2022-12-28T12:41:02.470Z,1018.028190790226
2022-12-28T12:46:11.742Z,1017.861889058551
2022-12-28T12:51:21.919Z,1017.876275841588
2022-12-28T12:56:29.266Z,1017.7090972499377
2022-12-28T13:01:35.473Z,1017.8149989393942
2022-12-28T13:06:34.427Z,1017.9093242674487
2022-12-28T13:11:35.855Z,1017.9724226758116
2022-12-28T13:16:34.165Z,1017.913465841459
2022-12-28T13:21:36.800Z,1017.9050527532783
2022-12-28T13:26:41.633Z,1017.7679066977264
2022-12-28T13:31:40.858Z,1017.7920132410053
2022-12-28T13:36:47.564Z,1017.7393339643351
2022-12-28T13:41:52.333Z,1017.7130814652606
2022-12-28T13:46:52.632Z,1017.6826856151076
2022-12-28T13:51:53.517Z,1017.6435153050844
2022-12-28T13:57:03.380Z,1017.595738419915
2022-12-28T14:02:03.416Z,1017.6328548048804
2022-12-28T14:06:59.868Z,1017.6148767843189
2022-12-28T14:11:55.824Z,1017.7529356722143
2022-12-28T14:16:52.080Z,1017.57202001411
2022-12-28T14:21:48.383Z,1017.5176102571854
2022-12-28T14:26:50.617Z,1017.4612771226672
2022-12-28T14:31:54.987Z,1017.3366683083426
2022-12-28T14:36:53.078Z,1017.2740528838959
2022-12-28T14:41:51.327Z,1017.3156447058288
2022-12-28T14:46:48.593Z,1017.2818924997032
2022-12-28T14:51:54.915Z,1017.2363839274841
2022-12-28T14:56:53.121Z,1017.2473520620259
2022-12-28T15:01:49.693Z,1017.2143446489182
2022-12-28T15:06:45.606Z,1017.2174901321199
2022-12-28T15:11:42.268Z,1017.208682678339
2022-12-28T15:16:44.245Z,1017.0488727859961
2022-12-28T15:21:40.399Z,1017.1140561979702
2022-12-28T15:26:37.604Z,1017.0276299963447
2022-12-28T15:31:40.381Z,1016.9610682369796
2022-12-28T15:36:40.060Z,1016.7986200117095
2022-12-28T15:41:42.400Z,1016.7064686310524
2022-12-28T15:46:42.683Z,1016.6558408719721
2022-12-28T15:51:45.405Z,1016.7393507186291
2022-12-28T15:56:52.127Z,1016.8446654111394
2022-12-28T16:01:49.718Z,1016.8206717188182
2022-12-28T16:06:47.349Z,1016.7718863743249
2022-12-28T16:11:54.683Z,1016.7405704775124
2022-12-28T16:16:51.085Z,1016.7465334065803
2022-12-28T16:21:52.355Z,1016.6655095183834
2022-12-28T16:26:55.201Z,1016.6557593099185
2022-12-28T16:32:02.952Z,1016.6167103968893
2022-12-28T16:36:59.120Z,1016.7607714547199
2022-12-28T16:41:56.627Z,1016.8590281371337
2022-12-28T16:46:55.593Z,1016.8445076314508
2022-12-28T16:51:51.874Z,1016.8831483801671
2022-12-28T16:56:53.135Z,1016.8678675994905
2022-12-28T17:01:54.589Z,1016.8641877349742
2022-12-28T17:06:51.594Z,1016.7688907118527
2022-12-28T17:11:47.860Z,1016.6714157956585
2022-12-28T17:16:44.225Z,1016.559273734314
2022-12-28T17:21:40.433Z,1016.5610846451905
2022-12-28T17:26:36.696Z,1016.5332204442668
2022-12-28T17:31:36.886Z,1016.6683150624707
2022-12-28T17:46:51.584Z,1016.6134628785227
2022-12-28T17:51:55.399Z,1016.6689037399914
2022-12-28T17:56:52.089Z,1016.6652460440569
2022-12-28T18:01:49.536Z,1016.7204001385071
2022-12-28T18:06:45.703Z,1016.6992587740093
2022-12-28T18:11:51.849Z,1016.8325914146903
2022-12-28T18:16:49.683Z,1016.8190055880602
2022-12-28T18:21:47.383Z,1016.8027497785807
2022-12-28T18:26:52.004Z,1016.8393135065775
2022-12-28T18:31:51.871Z,1016.8393541384482
2022-12-28T18:36:52.522Z,1016.7818294283493
2022-12-28T18:41:50.522Z,1016.7181969260953
2022-12-28T18:46:46.706Z,1016.5677361434589
2022-12-28T18:51:47.905Z,1016.4659940521333
2022-12-28T18:56:50.087Z,1016.4448429557156
2022-12-28T19:02:07.104Z,1016.3858249291707
2022-12-28T19:06:55.555Z,1016.3207271305118
2022-12-28T19:11:51.855Z,1016.3329417988243
2022-12-28T19:16:49.198Z,1016.3054361572117
2022-12-28T19:21:58.683Z,1016.2665799724829
2022-12-28T19:26:56.599Z,1016.2712277364146
2022-12-28T19:31:57.141Z,1016.1853407669639
2022-12-28T19:36:57.496Z,1016.1235772975513
2022-12-28T19:41:55.355Z,1016.0617176431134
2022-12-28T19:46:57.066Z,1016.199044131254
2022-12-28T19:51:58.285Z,1016.0416615608987
2022-12-28T20:02:00.449Z,1015.8634178476235
2022-12-28T20:07:03.162Z,1015.8101441021531
2022-12-28T20:12:00.851Z,1015.7649252988926
2022-12-28T20:17:07.488Z,1015.678098944283
2022-12-28T20:22:07.301Z,1015.7623372113975
2022-12-28T20:27:03.569Z,1015.7211811296738
2022-12-28T20:31:59.866Z,1015.7551563562126
2022-12-28T20:36:57.437Z,1015.6838588955932
2022-12-28T20:41:58.358Z,1015.6030717060686
2022-12-28T20:46:58.634Z,1015.6600377827609
2022-12-28T20:51:54.864Z,1015.5310984454563
2022-12-28T20:56:55.524Z,1015.5536970173999
2022-12-28T21:01:56.491Z,1015.5551997005567
2022-12-28T21:06:56.950Z,1015.5173667909061
2022-12-28T21:11:56.864Z,1015.5094366564429
2022-12-28T21:16:55.177Z,1015.5083287092035
2022-12-28T21:21:52.345Z,1015.4970589140742
2022-12-28T21:26:52.622Z,1015.4501762301743
2022-12-28T21:31:54.478Z,1015.4499298008652
2022-12-28T21:36:57.083Z,1015.4407155291218
2022-12-28T21:41:53.358Z,1015.3917936670783
2022-12-28T21:46:59.019Z,1015.4667655071961
2022-12-28T21:52:01.880Z,1015.3143801550495
2022-12-28T21:57:05.310Z,1015.3424246157773
2022-12-28T22:02:03.999Z,1015.2909546254327
2022-12-28T22:07:09.445Z,1015.1472442806245
2022-12-28T22:12:08.815Z,1015.0999248685739
2022-12-28T22:17:14.458Z,1015.048814361789
2022-12-28T22:22:15.892Z,1015.0381962296066
2022-12-28T22:32:17.840Z,1015.0387082906789
2022-12-28T22:37:15.429Z,1014.9383674672175
2022-12-28T22:42:11.293Z,1014.8869148088141
2022-12-28T22:47:08.570Z,1014.8953995641516
2022-12-28T22:52:04.863Z,1014.9032779000082
2022-12-28T22:57:01.085Z,1014.9037884521542
2022-12-28T23:01:57.551Z,1014.8669850856303
2022-12-28T23:06:56.321Z,1014.7792479754968
2022-12-28T23:17:00.308Z,1014.7489651213662
2022-12-28T23:21:56.508Z,1014.6163982905455
2022-12-28T23:26:52.612Z,1014.6146883138249
2022-12-28T23:31:48.864Z,1014.6221572411393
2022-12-28T23:36:45.087Z,1014.5355977833054
2022-12-28T23:41:41.431Z,1014.6022682689976
2022-12-28T23:46:37.697Z,1014.5542232387145
2022-12-28T23:51:35.897Z,1014.5417391768153
2022-12-28T23:56:32.159Z,1014.49876813915
